createdAt,value
2016-11-01T00:01:01.806Z,0
2016-11-01T00:02:15.526Z,0
2016-11-01T00:03:29.278Z,0
2016-11-01T00:04:42.892Z,0
2016-11-01T00:05:56.511Z,0
2016-11-01T00:07:09.566Z,0
2016-11-01T00:08:23.284Z,0
2016-11-01T00:09:36.867Z,0
2016-11-01T00:10:50.568Z,0
2016-11-01T00:12:04.229Z,0
2016-11-01T00:13:17.324Z,0
2016-11-01T00:14:30.491Z,0
2016-11-01T00:15:43.790Z,0
2016-11-01T00:16:56.885Z,0
2016-11-01T00:18:09.764Z,0
2016-11-01T00:19:22.548Z,0
2016-11-01T00:20:35.667Z,0
2016-11-01T00:21:49.395Z,0
2016-11-01T00:23:02.507Z,0
2016-11-01T00:24:15.676Z,0
2016-11-01T00:25:29.543Z,0
2016-11-01T00:26:43.294Z,0
2016-11-01T00:27:55.901Z,0
2016-11-01T00:29:09.543Z,0
2016-11-01T00:30:23.264Z,0
2016-11-01T00:31:36.069Z,0
2016-11-01T00:32:48.660Z,0
2016-11-01T00:34:02.236Z,0
2016-11-01T00:35:15.399Z,0
2016-11-01T00:36:28.530Z,0
2016-11-01T00:37:42.210Z,0
2016-11-01T00:38:55.235Z,0
2016-11-01T00:40:08.957Z,0
2016-11-01T00:41:22.649Z,0
2016-11-01T00:42:36.293Z,0
2016-11-01T00:43:49.404Z,0
2016-11-01T00:45:02.534Z,0
2016-11-01T00:46:16.187Z,0
2016-11-01T00:47:28.779Z,0
2016-11-01T00:48:42.462Z,0
2016-11-01T00:49:56.094Z,0
2016-11-01T00:51:08.966Z,0
2016-11-01T00:52:22.647Z,0
2016-11-01T00:53:36.293Z,0
2016-11-01T00:54:48.851Z,0
2016-11-01T00:56:02.491Z,0
2016-11-01T00:57:16.081Z,0
2016-11-01T00:58:29.741Z,0
2016-11-01T00:59:42.821Z,0
2016-11-01T01:00:56.551Z,0
2016-11-01T01:02:09.665Z,0
2016-11-01T01:03:22.767Z,0
2016-11-01T01:04:35.845Z,0
2016-11-01T01:05:49.001Z,0
2016-11-01T01:07:02.719Z,0
2016-11-01T01:08:16.310Z,0
2016-11-01T01:09:29.945Z,0
2016-11-01T01:10:43.535Z,0
2016-11-01T01:11:57.194Z,0
2016-11-01T01:13:11.046Z,0
2016-11-01T01:14:24.766Z,0
2016-11-01T01:15:38.018Z,0
2016-11-01T01:16:51.588Z,0
2016-11-01T01:18:04.917Z,0
2016-11-01T01:19:18.310Z,0
2016-11-01T01:20:31.446Z,0
2016-11-01T01:21:45.087Z,0
2016-11-01T01:22:57.657Z,0
2016-11-01T01:24:11.266Z,0
2016-11-01T01:25:24.870Z,0
2016-11-01T01:26:38.064Z,0
2016-11-01T01:27:51.146Z,0
2016-11-01T01:29:04.275Z,0
2016-11-01T01:30:17.919Z,0
2016-11-01T01:31:31.540Z,0
2016-11-01T01:32:45.303Z,0
2016-11-01T01:33:58.445Z,0
2016-11-01T01:35:12.098Z,0
2016-11-01T01:36:25.140Z,0
2016-11-01T01:37:38.239Z,0
2016-11-01T01:38:51.950Z,0
2016-11-01T01:40:05.587Z,0
2016-11-01T01:41:19.170Z,0
2016-11-01T01:42:32.549Z,0
2016-11-01T01:43:46.150Z,0
2016-11-01T01:44:59.838Z,0
2016-11-01T01:46:13.761Z,0
2016-11-01T01:47:27.406Z,0
2016-11-01T01:48:41.079Z,0
2016-11-01T01:49:54.712Z,0
2016-11-01T01:51:08.340Z,0
2016-11-01T01:52:21.983Z,0
2016-11-01T01:53:34.536Z,0
2016-11-01T01:54:48.205Z,0
2016-11-01T01:56:01.847Z,0
2016-11-01T01:57:15.499Z,0
2016-11-01T01:58:28.573Z,0
2016-11-01T01:59:41.713Z,0
2016-11-01T02:00:55.432Z,0
2016-11-01T02:02:09.116Z,0
2016-11-01T02:03:22.244Z,0
2016-11-01T02:04:35.885Z,0
2016-11-01T02:05:49.492Z,0
2016-11-01T02:07:02.611Z,0
2016-11-01T02:08:15.732Z,0
2016-11-01T02:09:29.114Z,0
2016-11-01T02:10:42.180Z,0
2016-11-01T02:11:55.828Z,0
2016-11-01T02:13:08.871Z,0
2016-11-01T02:14:22.561Z,0
2016-11-01T02:15:36.224Z,0
2016-11-01T02:16:48.743Z,0
2016-11-01T02:18:02.373Z,0
2016-11-01T02:19:16.024Z,0
2016-11-01T02:20:29.701Z,0
2016-11-01T02:21:43.350Z,0
2016-11-01T02:22:57.005Z,0
2016-11-01T02:24:10.946Z,0
2016-11-01T02:25:24.692Z,0
2016-11-01T02:26:38.376Z,0
2016-11-01T02:27:51.558Z,0
2016-11-01T02:29:04.773Z,0
2016-11-01T02:30:18.461Z,0
2016-11-01T02:31:32.098Z,0
2016-11-01T02:32:45.697Z,0
2016-11-01T02:33:59.248Z,0
2016-11-01T02:35:12.332Z,0
2016-11-01T02:36:26.004Z,0
2016-11-01T02:37:39.597Z,0
2016-11-01T02:38:53.453Z,0
2016-11-01T02:40:06.905Z,0
2016-11-01T02:41:20.551Z,0
2016-11-01T02:42:33.942Z,0
2016-11-01T02:43:47.106Z,0
2016-11-01T02:45:00.487Z,0
2016-11-01T02:46:14.085Z,0
2016-11-01T02:47:27.746Z,0
2016-11-01T02:48:41.037Z,0
2016-11-01T02:49:54.737Z,0
2016-11-01T02:51:08.370Z,0
2016-11-01T02:52:21.177Z,0
2016-11-01T02:53:34.833Z,0
2016-11-01T02:54:48.465Z,0
2016-11-01T02:56:01.809Z,0
2016-11-01T02:57:15.137Z,0
2016-11-01T02:58:28.723Z,0
2016-11-01T02:59:42.364Z,0
2016-11-01T03:00:56.067Z,0
2016-11-01T03:02:09.651Z,0
2016-11-01T03:03:23.393Z,0
2016-11-01T03:04:37.049Z,0
2016-11-01T03:05:50.632Z,0
2016-11-01T03:07:04.276Z,0
2016-11-01T03:08:17.978Z,0
2016-11-01T03:09:31.600Z,0
2016-11-01T03:10:44.173Z,0
2016-11-01T03:11:57.821Z,0
2016-11-01T03:13:11.494Z,0
2016-11-01T03:14:25.160Z,0
2016-11-01T03:15:38.861Z,0
2016-11-01T03:16:51.970Z,0
2016-11-01T03:18:05.637Z,0
2016-11-01T03:19:19.305Z,0
2016-11-01T03:20:32.975Z,0
2016-11-01T03:21:46.625Z,0
2016-11-01T03:23:00.256Z,0
2016-11-01T03:24:13.854Z,0
2016-11-01T03:25:27.524Z,0
2016-11-01T03:26:41.255Z,0
2016-11-01T03:27:54.937Z,0
2016-11-01T03:29:08.577Z,0
2016-11-01T03:30:22.236Z,0
2016-11-01T03:31:35.895Z,0
2016-11-01T03:32:49.568Z,0
2016-11-01T03:34:03.231Z,0
2016-11-01T03:35:17.180Z,0
2016-11-01T03:36:30.336Z,0
2016-11-01T03:37:44.137Z,0
2016-11-01T03:38:57.822Z,0
2016-11-01T03:40:11.490Z,0
2016-11-01T03:41:25.143Z,0
2016-11-01T03:42:38.765Z,0
2016-11-01T03:43:52.311Z,0
2016-11-01T03:45:05.937Z,0
2016-11-01T03:46:19.660Z,0
2016-11-01T03:47:32.727Z,0
2016-11-01T03:48:45.802Z,0
2016-11-01T03:49:59.453Z,0
2016-11-01T03:51:13.076Z,0
2016-11-01T03:52:26.471Z,0
2016-11-01T03:53:40.128Z,0
2016-11-01T03:54:53.767Z,0
2016-11-01T03:56:07.443Z,0
2016-11-01T03:57:21.073Z,0
2016-11-01T03:58:34.800Z,0
2016-11-01T03:59:48.459Z,0
2016-11-01T04:01:02.100Z,0
2016-11-01T04:02:15.769Z,0
2016-11-01T04:03:29.144Z,0
2016-11-01T04:04:42.822Z,0
2016-11-01T04:05:56.403Z,0
2016-11-01T04:07:10.043Z,0
2016-11-01T04:08:23.760Z,0
2016-11-01T04:09:37.489Z,0
2016-11-01T04:10:51.176Z,0
2016-11-01T04:12:04.827Z,0
2016-11-01T04:13:18.052Z,0
2016-11-01T04:14:31.763Z,0
2016-11-01T04:15:45.449Z,0
2016-11-01T04:16:59.101Z,0
2016-11-01T04:18:12.733Z,0
2016-11-01T04:19:26.339Z,0
2016-11-01T04:20:39.976Z,0
2016-11-01T04:21:53.622Z,0
2016-11-01T04:23:07.308Z,0
2016-11-01T04:24:20.875Z,0
2016-11-01T04:25:34.500Z,0
2016-11-01T04:26:48.105Z,0
2016-11-01T04:28:01.720Z,0
2016-11-01T04:29:14.834Z,0
2016-11-01T04:30:28.507Z,0
2016-11-01T04:31:42.146Z,0
2016-11-01T04:32:55.804Z,0
2016-11-01T04:34:09.413Z,0
2016-11-01T04:35:22.537Z,0
2016-11-01T04:36:36.164Z,0
2016-11-01T04:37:49.876Z,0
2016-11-01T04:39:03.558Z,0
2016-11-01T04:40:17.343Z,0
2016-11-01T04:41:30.931Z,0
2016-11-01T04:42:44.542Z,0
2016-11-01T04:43:58.223Z,0
2016-11-01T04:45:11.596Z,0
2016-11-01T04:46:25.216Z,0
2016-11-01T04:47:38.799Z,0
2016-11-01T04:48:52.414Z,0
2016-11-01T04:50:06.007Z,0
2016-11-01T04:51:19.589Z,0
2016-11-01T04:52:33.231Z,0
2016-11-01T04:53:45.988Z,0
2016-11-01T04:54:59.586Z,0
2016-11-01T04:56:13.188Z,0
2016-11-01T04:57:26.755Z,0
2016-11-01T04:58:40.093Z,0
2016-11-01T04:59:53.197Z,0
2016-11-01T05:01:06.863Z,0
2016-11-01T05:02:20.508Z,0
2016-11-01T05:03:34.205Z,0
2016-11-01T05:04:47.809Z,0
2016-11-01T05:06:01.508Z,0
2016-11-01T05:07:14.871Z,0
2016-11-01T05:08:28.525Z,0
2016-11-01T05:09:42.194Z,0
2016-11-01T05:10:55.823Z,0
2016-11-01T05:12:09.459Z,0
2016-11-01T05:13:23.134Z,0
2016-11-01T05:14:36.811Z,0
2016-11-01T05:15:49.963Z,0
2016-11-01T05:17:03.687Z,0
2016-11-01T05:18:17.351Z,0
2016-11-01T05:19:30.988Z,0
2016-11-01T05:20:44.614Z,0
2016-11-01T05:21:57.754Z,0
2016-11-01T05:23:11.060Z,0
2016-11-01T05:24:24.750Z,0
2016-11-01T05:25:38.417Z,0
2016-11-01T05:26:51.995Z,0
2016-11-01T05:28:05.149Z,0
2016-11-01T05:29:18.790Z,0
2016-11-01T05:30:31.889Z,0
2016-11-01T05:31:45.013Z,0
2016-11-01T05:32:58.635Z,0
2016-11-01T05:34:12.206Z,0
2016-11-01T05:35:25.822Z,0
2016-11-01T05:36:38.913Z,0
2016-11-01T05:37:52.522Z,0
2016-11-01T05:39:05.592Z,0
2016-11-01T05:40:19.250Z,0
2016-11-01T05:41:32.925Z,0
2016-11-01T05:42:46.517Z,0
2016-11-01T05:44:00.178Z,0
2016-11-01T05:45:14.082Z,0
2016-11-01T05:46:27.103Z,0
2016-11-01T05:47:40.996Z,0
2016-11-01T05:48:54.592Z,0
2016-11-01T05:50:07.211Z,0
2016-11-01T05:51:20.631Z,0
2016-11-01T05:52:34.230Z,0
2016-11-01T05:53:47.869Z,0
2016-11-01T05:55:01.501Z,0
2016-11-01T05:56:14.843Z,0
2016-11-01T05:57:27.431Z,0
2016-11-01T05:58:41.117Z,0
2016-11-01T05:59:54.746Z,0
2016-11-01T06:01:07.325Z,0
2016-11-01T06:02:20.519Z,0
2016-11-01T06:03:33.714Z,0
2016-11-01T06:04:46.842Z,0
2016-11-01T06:05:59.673Z,0
2016-11-01T06:07:12.766Z,0
2016-11-01T06:08:26.433Z,0
2016-11-01T06:09:40.074Z,0
2016-11-01T06:10:53.747Z,0
2016-11-01T06:12:07.320Z,0
2016-11-01T06:13:20.932Z,0
2016-11-01T06:14:34.617Z,0
2016-11-01T06:15:48.221Z,0
2016-11-01T06:17:01.850Z,0
2016-11-01T06:18:14.353Z,0
2016-11-01T06:19:28.039Z,0
2016-11-01T06:20:41.149Z,0
2016-11-01T06:21:54.817Z,0
2016-11-01T06:23:08.411Z,0
2016-11-01T06:24:22.076Z,0
2016-11-01T06:25:35.687Z,0
2016-11-01T06:26:49.293Z,0
2016-11-01T06:28:02.391Z,0
2016-11-01T06:29:16.010Z,0
2016-11-01T06:30:29.586Z,0
2016-11-01T06:31:43.132Z,0
2016-11-01T06:32:56.714Z,0
2016-11-01T06:34:10.291Z,0
2016-11-01T06:35:23.952Z,0
2016-11-01T06:36:37.062Z,0
2016-11-01T06:37:50.337Z,0
2016-11-01T06:39:03.977Z,0
2016-11-01T06:40:17.643Z,0
2016-11-01T06:41:31.294Z,0
2016-11-01T06:42:44.170Z,0
2016-11-01T06:43:57.784Z,0
2016-11-01T06:45:11.522Z,0
2016-11-01T06:46:24.635Z,0
2016-11-01T06:47:38.233Z,0
2016-11-01T06:48:50.778Z,0
2016-11-01T06:50:03.902Z,0
2016-11-01T06:51:17.551Z,0
2016-11-01T06:52:31.197Z,0
2016-11-01T06:53:44.870Z,0
2016-11-01T06:54:58.448Z,0
2016-11-01T06:56:11.523Z,0
2016-11-01T06:57:25.212Z,0
2016-11-01T06:58:38.279Z,0
2016-11-01T06:59:51.395Z,0
2016-11-01T07:01:04.938Z,0
2016-11-01T07:02:18.546Z,0
2016-11-01T07:03:31.625Z,0
2016-11-01T07:04:44.651Z,0
2016-11-01T07:05:58.341Z,0
2016-11-01T07:07:11.939Z,0
2016-11-01T07:08:25.555Z,0
2016-11-01T07:09:39.202Z,0
2016-11-01T07:10:52.822Z,0
2016-11-01T07:12:05.912Z,0
2016-11-01T07:13:19.470Z,0
2016-11-01T07:14:33.140Z,0
2016-11-01T07:15:46.436Z,0
2016-11-01T07:17:00.054Z,0
2016-11-01T07:18:13.095Z,0
2016-11-01T07:19:26.750Z,0
2016-11-01T07:20:39.837Z,0
2016-11-01T07:21:52.960Z,0
2016-11-01T07:23:06.571Z,0
2016-11-01T07:24:20.442Z,0
2016-11-01T07:25:34.081Z,0
2016-11-01T07:26:47.321Z,0
2016-11-01T07:28:00.919Z,0
2016-11-01T07:29:14.480Z,0
2016-11-01T07:30:28.102Z,0
2016-11-01T07:31:41.723Z,0
2016-11-01T07:32:55.388Z,0
2016-11-01T07:34:08.013Z,0
2016-11-01T07:35:21.623Z,0
2016-11-01T07:36:35.212Z,0
2016-11-01T07:37:48.847Z,0
2016-11-01T07:39:01.921Z,0
2016-11-01T07:40:15.563Z,0
2016-11-01T07:41:29.193Z,0
2016-11-01T07:42:42.850Z,0
2016-11-01T07:43:56.469Z,0
2016-11-01T07:45:09.814Z,0
2016-11-01T07:46:23.573Z,0
2016-11-01T07:47:36.897Z,0
2016-11-01T07:48:50.507Z,0
2016-11-01T07:50:04.110Z,0
2016-11-01T07:51:17.709Z,0
2016-11-01T07:52:31.335Z,0
2016-11-01T07:53:44.410Z,0
2016-11-01T07:54:57.571Z,0
2016-11-01T07:56:10.670Z,0
2016-11-01T07:57:23.733Z,0
2016-11-01T07:58:36.956Z,0
2016-11-01T07:59:50.563Z,0
2016-11-01T08:01:04.178Z,0
2016-11-01T08:02:17.779Z,0
2016-11-01T08:03:31.378Z,0
2016-11-01T08:04:44.497Z,0
2016-11-01T08:05:58.134Z,0
2016-11-01T08:07:11.784Z,0
2016-11-01T08:08:24.876Z,0
2016-11-01T08:09:38.096Z,0
2016-11-01T08:10:51.741Z,0
2016-11-01T08:12:05.162Z,0
2016-11-01T08:13:18.828Z,0
2016-11-01T08:14:32.513Z,0
2016-11-01T08:15:46.074Z,0
2016-11-01T08:16:59.708Z,0
2016-11-01T08:18:13.346Z,0
2016-11-01T08:19:27.003Z,0
2016-11-01T08:20:41.201Z,0
2016-11-01T08:21:54.816Z,0
2016-11-01T08:23:08.099Z,0
2016-11-01T08:24:21.733Z,0
2016-11-01T08:25:35.339Z,0
2016-11-01T08:26:48.690Z,0
2016-11-01T08:28:01.768Z,0
2016-11-01T08:29:15.146Z,0
2016-11-01T08:30:28.773Z,0
2016-11-01T08:31:42.351Z,0
2016-11-01T08:32:56.017Z,0
2016-11-01T08:34:09.084Z,0
2016-11-01T08:35:22.724Z,0
2016-11-01T08:36:36.299Z,0
2016-11-01T08:37:49.944Z,0
2016-11-01T08:39:02.993Z,0
2016-11-01T08:40:16.091Z,0
2016-11-01T08:41:29.738Z,0
2016-11-01T08:42:43.396Z,0
2016-11-01T08:43:56.979Z,0
2016-11-01T08:45:10.627Z,0
2016-11-01T08:46:23.128Z,5
2016-11-01T08:47:36.806Z,5
2016-11-01T08:48:49.987Z,5
2016-11-01T08:50:03.018Z,5
2016-11-01T08:51:16.679Z,5
2016-11-01T08:52:29.815Z,5
2016-11-01T08:53:42.922Z,5
2016-11-01T08:54:56.617Z,5
2016-11-01T08:56:10.298Z,5
2016-11-01T08:57:23.861Z,5
2016-11-01T08:58:37.438Z,5
2016-11-01T08:59:51.093Z,5
2016-11-01T09:01:03.662Z,5
2016-11-01T09:02:17.430Z,5
2016-11-01T09:03:31.020Z,5
2016-11-01T09:04:44.313Z,5
2016-11-01T09:05:58.040Z,5
2016-11-01T09:07:11.712Z,5
2016-11-01T09:08:25.302Z,10
2016-11-01T09:09:38.976Z,10
2016-11-01T09:10:52.602Z,10
2016-11-01T09:12:06.301Z,10
2016-11-01T09:13:19.959Z,10
2016-11-01T09:14:33.607Z,10
2016-11-01T09:15:47.471Z,10
2016-11-01T09:17:00.632Z,10
2016-11-01T09:18:13.996Z,10
2016-11-01T09:19:26.737Z,10
2016-11-01T09:20:40.393Z,10
2016-11-01T09:21:54.119Z,10
2016-11-01T09:23:07.746Z,10
2016-11-01T09:24:20.850Z,15
2016-11-01T09:25:34.545Z,15
2016-11-01T09:26:47.637Z,15
2016-11-01T09:28:01.240Z,15
2016-11-01T09:29:14.348Z,15
2016-11-01T09:30:27.439Z,15
2016-11-01T09:31:40.566Z,15
2016-11-01T09:32:53.681Z,20
2016-11-01T09:34:07.333Z,20
2016-11-01T09:35:20.996Z,20
2016-11-01T09:36:34.636Z,20
2016-11-01T09:37:47.706Z,20
2016-11-01T09:39:01.309Z,20
2016-11-01T09:40:15.024Z,20
2016-11-01T09:41:28.114Z,20
2016-11-01T09:42:41.684Z,20
2016-11-01T09:43:55.314Z,20
2016-11-01T09:45:08.381Z,20
2016-11-01T09:46:21.477Z,20
2016-11-01T09:47:34.056Z,20
2016-11-01T09:48:47.745Z,20
2016-11-01T09:50:00.882Z,20
2016-11-01T09:51:14.509Z,20
2016-11-01T09:52:28.210Z,20
2016-11-01T09:53:41.338Z,25
2016-11-01T09:54:54.975Z,25
2016-11-01T09:56:08.100Z,25
2016-11-01T09:57:21.834Z,25
2016-11-01T09:58:35.006Z,25
2016-11-01T09:59:48.169Z,25
2016-11-01T10:01:01.807Z,25
2016-11-01T10:02:15.589Z,25
2016-11-01T10:03:28.686Z,25
2016-11-01T10:04:42.250Z,25
2016-11-01T10:05:55.351Z,25
2016-11-01T10:07:08.995Z,25
2016-11-01T10:08:22.772Z,25
2016-11-01T10:09:36.396Z,30
2016-11-01T10:10:50.010Z,30
2016-11-01T10:12:03.604Z,30
2016-11-01T10:13:17.499Z,30
2016-11-01T10:14:31.234Z,30
2016-11-01T10:15:44.911Z,30
2016-11-01T10:16:57.795Z,30
2016-11-01T10:18:11.397Z,30
2016-11-01T10:19:25.027Z,35
2016-11-01T10:20:38.727Z,35
2016-11-01T10:21:52.380Z,35
2016-11-01T10:23:05.934Z,35
2016-11-01T10:24:19.642Z,35
2016-11-01T10:25:33.228Z,35
2016-11-01T10:26:46.316Z,35
2016-11-01T10:27:59.959Z,35
2016-11-01T10:29:13.551Z,35
2016-11-01T10:30:26.668Z,35
2016-11-01T10:31:40.317Z,40
2016-11-01T10:32:53.924Z,35
2016-11-01T10:34:05.376Z,35
2016-11-01T10:35:18.958Z,35
2016-11-01T10:36:32.579Z,35
2016-11-01T10:37:46.246Z,35
2016-11-01T10:39:00.153Z,35
2016-11-01T10:40:13.822Z,40
2016-11-01T10:41:27.417Z,40
2016-11-01T10:42:40.525Z,40
2016-11-01T10:43:53.912Z,40
2016-11-01T10:45:07.627Z,40
2016-11-01T10:46:21.284Z,40
2016-11-01T10:47:34.975Z,40
2016-11-01T10:48:48.704Z,40
2016-11-01T10:50:01.838Z,40
2016-11-01T10:51:14.909Z,40
2016-11-01T10:52:27.993Z,40
2016-11-01T10:53:41.216Z,40
2016-11-01T10:54:54.850Z,40
2016-11-01T10:56:08.126Z,40
2016-11-01T10:57:21.163Z,40
2016-11-01T10:58:34.812Z,40
2016-11-01T10:59:48.387Z,40
2016-11-01T11:01:02.081Z,35
2016-11-01T11:02:15.132Z,35
2016-11-01T11:03:28.872Z,35
2016-11-01T11:04:42.566Z,35
2016-11-01T11:05:56.140Z,40
2016-11-01T11:07:09.781Z,40
2016-11-01T11:08:23.166Z,40
2016-11-01T11:09:36.712Z,40
2016-11-01T11:10:50.663Z,35
2016-11-01T11:12:04.277Z,35
2016-11-01T11:13:17.989Z,40
2016-11-01T11:14:31.646Z,35
2016-11-01T11:15:45.236Z,35
2016-11-01T11:16:58.891Z,35
2016-11-01T11:18:11.955Z,35
2016-11-01T11:19:25.554Z,35
2016-11-01T11:20:39.256Z,35
2016-11-01T11:21:52.889Z,35
2016-11-01T11:23:06.586Z,35
2016-11-01T11:24:20.210Z,35
2016-11-01T11:25:33.860Z,35
2016-11-01T11:26:46.947Z,30
2016-11-01T11:28:00.636Z,35
2016-11-01T11:29:14.388Z,35
2016-11-01T11:30:28.098Z,40
2016-11-01T11:31:41.773Z,40
2016-11-01T11:32:55.399Z,45
2016-11-01T11:34:08.987Z,45
2016-11-01T11:35:21.528Z,45
2016-11-01T11:36:35.167Z,50
2016-11-01T11:37:48.759Z,50
2016-11-01T11:39:02.328Z,45
2016-11-01T11:40:15.968Z,45
2016-11-01T11:41:29.666Z,50
2016-11-01T11:42:43.256Z,50
2016-11-01T11:43:56.866Z,50
2016-11-01T11:45:10.053Z,50
2016-11-01T11:46:23.131Z,40
2016-11-01T11:47:36.770Z,40
2016-11-01T11:48:50.613Z,40
2016-11-01T11:50:04.261Z,40
2016-11-01T11:51:17.915Z,45
2016-11-01T11:52:31.495Z,45
2016-11-01T11:53:44.789Z,45
2016-11-01T11:54:58.458Z,45
2016-11-01T11:56:12.115Z,45
2016-11-01T11:57:25.773Z,45
2016-11-01T11:58:39.384Z,40
2016-11-01T11:59:53.013Z,45
2016-11-01T12:01:06.653Z,45
2016-11-01T12:02:20.609Z,50
2016-11-01T12:03:33.746Z,40
2016-11-01T12:04:47.503Z,40
2016-11-01T12:06:00.607Z,30
2016-11-01T12:07:14.400Z,35
2016-11-01T12:08:28.090Z,45
2016-11-01T12:09:41.240Z,35
2016-11-01T12:10:54.387Z,40
2016-11-01T12:12:07.552Z,40
2016-11-01T12:13:20.654Z,55
2016-11-01T12:14:33.721Z,60
2016-11-01T12:15:46.033Z,70
2016-11-01T12:16:59.161Z,85
2016-11-01T12:18:12.858Z,65
2016-11-01T12:19:25.394Z,60
2016-11-01T12:20:39.074Z,50
2016-11-01T12:21:52.669Z,50
2016-11-01T12:23:06.292Z,55
2016-11-01T12:24:19.954Z,105
2016-11-01T12:25:33.060Z,105
2016-11-01T12:26:46.742Z,90
2016-11-01T12:27:59.934Z,95
2016-11-01T12:29:13.105Z,110
2016-11-01T12:30:26.730Z,70
2016-11-01T12:31:40.399Z,50
2016-11-01T12:32:54.073Z,60
2016-11-01T12:34:07.712Z,55
2016-11-01T12:35:21.400Z,125
2016-11-01T12:36:35.000Z,65
2016-11-01T12:37:48.427Z,65
2016-11-01T12:39:02.063Z,60
2016-11-01T12:40:15.674Z,65
2016-11-01T12:41:29.008Z,35
2016-11-01T12:42:42.112Z,35
2016-11-01T12:43:55.775Z,25
2016-11-01T12:45:08.920Z,30
2016-11-01T12:46:22.607Z,40
2016-11-01T12:47:35.706Z,40
2016-11-01T12:48:49.113Z,55
2016-11-01T12:50:02.735Z,45
2016-11-01T12:51:16.424Z,60
2016-11-01T12:52:28.999Z,45
2016-11-01T12:53:42.608Z,50
2016-11-01T12:54:55.687Z,50
2016-11-01T12:56:08.820Z,45
2016-11-01T12:57:21.912Z,40
2016-11-01T12:58:35.039Z,40
2016-11-01T12:59:48.667Z,40
2016-11-01T13:01:02.288Z,40
2016-11-01T13:02:15.925Z,50
2016-11-01T13:03:29.043Z,55
2016-11-01T13:04:42.684Z,50
2016-11-01T13:05:55.792Z,65
2016-11-01T13:07:08.942Z,55
2016-11-01T13:08:22.571Z,65
2016-11-01T13:09:35.153Z,45
2016-11-01T13:10:48.855Z,60
2016-11-01T13:12:02.523Z,50
2016-11-01T13:13:15.711Z,75
2016-11-01T13:14:28.834Z,95
2016-11-01T13:15:41.975Z,140
2016-11-01T13:16:55.656Z,85
2016-11-01T13:18:09.242Z,75
2016-11-01T13:19:22.971Z,65
2016-11-01T13:20:36.683Z,45
2016-11-01T13:21:49.807Z,40
2016-11-01T13:23:02.352Z,45
2016-11-01T13:24:15.917Z,50
2016-11-01T13:25:29.635Z,75
2016-11-01T13:26:43.304Z,100
2016-11-01T13:27:56.961Z,125
2016-11-01T13:29:10.613Z,85
2016-11-01T13:30:24.193Z,60
2016-11-01T13:31:37.789Z,65
2016-11-01T13:32:50.613Z,65
2016-11-01T13:34:03.138Z,80
2016-11-01T13:35:16.828Z,105
2016-11-01T13:36:30.501Z,85
2016-11-01T13:37:43.685Z,80
2016-11-01T13:38:57.313Z,165
2016-11-01T13:40:09.973Z,140
2016-11-01T13:41:23.295Z,230
2016-11-01T13:42:36.893Z,100
2016-11-01T13:43:50.696Z,110
2016-11-01T13:45:04.412Z,90
2016-11-01T13:46:17.725Z,80
2016-11-01T13:47:31.373Z,65
2016-11-01T13:48:45.034Z,70
2016-11-01T13:49:58.674Z,75
2016-11-01T13:51:12.378Z,110
2016-11-01T13:52:25.945Z,180
2016-11-01T13:53:39.065Z,105
2016-11-01T13:54:52.187Z,245
2016-11-01T13:56:05.312Z,225
2016-11-01T13:57:18.426Z,175
2016-11-01T13:58:32.105Z,90
2016-11-01T13:59:45.190Z,85
2016-11-01T14:00:58.308Z,60
2016-11-01T14:02:11.958Z,55
2016-11-01T14:05:03.883Z,75
2016-11-01T14:06:17.846Z,45
2016-11-01T14:07:31.489Z,40
2016-11-01T14:08:45.150Z,35
2016-11-01T14:09:58.755Z,35
2016-11-01T14:11:12.398Z,40
2016-11-01T14:12:25.923Z,35
2016-11-01T14:13:39.581Z,40
2016-11-01T14:14:53.172Z,45
2016-11-01T14:16:06.486Z,55
2016-11-01T14:17:19.058Z,75
2016-11-01T14:18:32.649Z,90
2016-11-01T14:19:45.434Z,100
2016-11-01T14:20:59.004Z,135
2016-11-01T14:22:12.680Z,130
2016-11-01T14:23:26.269Z,115
2016-11-01T14:24:39.263Z,85
2016-11-01T14:25:52.816Z,80
2016-11-01T14:27:06.412Z,80
2016-11-01T14:28:20.038Z,80
2016-11-01T14:29:33.121Z,135
2016-11-01T14:30:46.160Z,85
2016-11-01T14:31:58.726Z,90
2016-11-01T14:33:11.855Z,85
2016-11-01T14:34:25.414Z,75
2016-11-01T14:35:39.023Z,75
2016-11-01T14:36:52.574Z,75
2016-11-01T14:38:06.176Z,75
2016-11-01T14:39:19.277Z,85
2016-11-01T14:40:32.323Z,300
2016-11-01T14:41:45.341Z,125
2016-11-01T14:42:58.951Z,315
2016-11-01T14:44:11.994Z,160
2016-11-01T14:45:24.543Z,310
2016-11-01T14:46:38.088Z,315
2016-11-01T14:47:51.097Z,290
2016-11-01T14:49:03.114Z,115
2016-11-01T14:50:16.185Z,335
2016-11-01T14:51:29.737Z,140
2016-11-01T14:52:42.834Z,120
2016-11-01T14:53:56.429Z,200
2016-11-01T14:55:09.558Z,150
2016-11-01T14:56:23.136Z,220
2016-11-01T14:57:36.737Z,210
2016-11-01T14:58:50.339Z,220
2016-11-01T15:00:03.946Z,205
2016-11-01T15:01:17.665Z,310
2016-11-01T15:02:31.256Z,310
2016-11-01T15:03:44.475Z,305
2016-11-01T15:04:58.086Z,320
2016-11-01T15:06:11.106Z,315
2016-11-01T15:07:24.716Z,315
2016-11-01T15:08:38.345Z,325
2016-11-01T15:09:50.852Z,225
2016-11-01T15:11:03.967Z,335
2016-11-01T15:12:17.638Z,250
2016-11-01T15:13:30.175Z,195
2016-11-01T15:14:43.795Z,100
2016-11-01T15:15:57.371Z,365
2016-11-01T15:17:10.946Z,170
2016-11-01T15:18:24.605Z,335
2016-11-01T15:19:38.195Z,335
2016-11-01T15:20:50.676Z,335
2016-11-01T15:22:04.242Z,330
2016-11-01T15:23:18.069Z,170
2016-11-01T15:24:31.717Z,225
2016-11-01T15:25:45.420Z,290
2016-11-01T15:26:57.944Z,105
2016-11-01T15:28:11.831Z,100
2016-11-01T15:29:24.837Z,350
2016-11-01T15:30:37.925Z,65
2016-11-01T15:31:51.557Z,360
2016-11-01T15:33:05.188Z,350
2016-11-01T15:34:18.825Z,350
2016-11-01T15:35:31.865Z,205
2016-11-01T15:36:44.897Z,100
2016-11-01T15:37:58.424Z,310
2016-11-01T15:39:11.973Z,335
2016-11-01T15:40:25.078Z,335
2016-11-01T15:41:38.777Z,340
2016-11-01T15:42:51.834Z,335
2016-11-01T15:44:04.779Z,340
2016-11-01T15:45:18.332Z,345
2016-11-01T15:46:31.342Z,95
2016-11-01T15:47:44.409Z,365
2016-11-01T15:48:58.045Z,165
2016-11-01T15:50:11.838Z,355
2016-11-01T15:51:24.866Z,115
2016-11-01T15:52:37.900Z,60
2016-11-01T15:53:51.521Z,350
2016-11-01T15:55:04.640Z,335
2016-11-01T15:56:18.210Z,350
2016-11-01T15:57:31.277Z,345
2016-11-01T15:58:44.991Z,350
2016-11-01T15:59:58.555Z,350
2016-11-01T16:01:11.897Z,350
2016-11-01T16:02:25.476Z,340
2016-11-01T16:03:38.793Z,350
2016-11-01T16:04:51.894Z,355
2016-11-01T16:06:05.587Z,300
2016-11-01T16:07:19.246Z,60
2016-11-01T16:08:32.821Z,345
2016-11-01T16:09:45.915Z,345
2016-11-01T16:10:58.989Z,360
2016-11-01T16:12:12.539Z,345
2016-11-01T16:13:25.615Z,355
2016-11-01T16:14:39.199Z,350
2016-11-01T16:15:52.789Z,330
2016-11-01T16:17:06.367Z,340
2016-11-01T16:18:18.860Z,335
2016-11-01T16:19:31.917Z,330
2016-11-01T16:20:59.465Z,75
2016-11-01T16:22:13.048Z,60
2016-11-01T16:23:25.336Z,350
2016-11-01T16:24:39.056Z,340
2016-11-01T16:25:52.600Z,345
2016-11-01T16:27:06.197Z,345
2016-11-01T16:28:19.806Z,325
2016-11-01T16:29:33.410Z,335
2016-11-01T16:30:46.741Z,290
2016-11-01T16:32:00.302Z,60
2016-11-01T16:33:13.884Z,235
2016-11-01T16:34:26.950Z,80
2016-11-01T16:35:40.479Z,60
2016-11-01T16:36:53.205Z,65
2016-11-01T16:38:06.293Z,250
2016-11-01T16:39:19.883Z,255
2016-11-01T16:40:32.918Z,245
2016-11-01T16:41:45.934Z,260
2016-11-01T16:42:59.466Z,260
2016-11-01T16:44:13.090Z,260
2016-11-01T16:45:26.132Z,255
2016-11-01T16:46:39.727Z,245
2016-11-01T16:47:53.329Z,260
2016-11-01T16:49:06.931Z,260
2016-11-01T16:50:20.471Z,255
2016-11-01T16:51:34.120Z,220
2016-11-01T16:52:47.741Z,240
2016-11-01T16:54:01.334Z,250
2016-11-01T16:55:15.075Z,250
2016-11-01T16:56:28.640Z,255
2016-11-01T16:57:42.238Z,235
2016-11-01T16:58:55.773Z,250
2016-11-01T17:00:09.356Z,250
2016-11-01T17:01:22.960Z,245
2016-11-01T17:02:36.586Z,245
2016-11-01T17:03:49.644Z,255
2016-11-01T17:05:03.201Z,250
2016-11-01T17:06:16.786Z,250
2016-11-01T17:07:30.349Z,45
2016-11-01T17:08:43.370Z,240
2016-11-01T17:09:56.940Z,245
2016-11-01T17:11:10.055Z,245
2016-11-01T17:12:23.610Z,240
2016-11-01T17:13:36.585Z,235
2016-11-01T17:14:50.201Z,235
2016-11-01T17:16:03.820Z,225
2016-11-01T17:17:16.391Z,240
2016-11-01T17:18:29.964Z,240
2016-11-01T17:19:42.486Z,245
2016-11-01T17:20:55.556Z,255
2016-11-01T17:22:09.226Z,70
2016-11-01T17:23:22.896Z,240
2016-11-01T17:24:36.529Z,235
2016-11-01T17:25:50.119Z,45
2016-11-01T17:27:03.702Z,230
2016-11-01T17:28:17.330Z,50
2016-11-01T17:29:30.979Z,215
2016-11-01T17:30:44.584Z,50
2016-11-01T17:31:58.147Z,215
2016-11-01T17:33:11.237Z,230
2016-11-01T17:34:24.911Z,225
2016-11-01T17:35:38.580Z,220
2016-11-01T17:36:52.175Z,220
2016-11-01T17:38:05.785Z,220
2016-11-01T17:39:19.350Z,220
2016-11-01T17:40:32.391Z,215
2016-11-01T17:41:46.058Z,215